MBPV

Details ICAO MBPV (PLS)
Name Providenciales
Region Turks and Caicos Islands
Timezone America/Grand_Turk (UTC-5.0)
Plans Departing 176
Arriving 233
Stats Elevation 13 ft / 4 m (AMSL)
Location 21.773800° -72.268700°
Runways 1
Magnetic Variation 10.678° W
Sunrise 2018-12-09 11:17:39 UTC / 2018-12-09 06:17:39 Local
Sunset 2018-12-09 22:08:06 UTC / 2018-12-09 17:08:06 Local
Advertisement - Login to hide

Runways

ID Width Length Bearing (true/mag) Surface Threshold Overrun Markings Lighting
10 148 ft / 45 m 9,364 ft / 2,854 m 93.07° / 103.75° ASPHALT 0 ft / 0 m 0 ft / 0 m VISUAL CENTERLINE EDGE THRESHOLD MALSF
28 148 ft / 45 m 9,364 ft / 2,854 m 273.08° / 283.76° ASPHALT 0 ft / 0 m 0 ft / 0 m VISUAL CENTERLINE EDGE THRESHOLD MALSF

Map

Weather


0- 5 10 15 20 25 30 35+ Temperature / °C

Clouds and Precipitation
Forecast for 2018-12-10 00:00 UTC. Updated 2 hours ago

Ground ~20,000 ft ~40,000 ft Winds

METAR

MBPV 092200Z 10009KT 9999 SCT012 27/22 Q1014

TAF

Not found

Frequencies

Tower 119.90 MHz PROVO TOWER
Ground 121.90 MHz PROVO GROUND
Recorded 132.45 MHz ATIS
Warning: Do not use this data for real-world aviation or navigation. No guarantee of current accuracy is given.